< Typhoon 201809 2018 Season Typhoon 201811 >
Typhoon 201810 (AMPIL)
General InformationTrack Information on Google MapsDetailed Wind InformationForecast History on Google MapsAccess Analytics MapList of All Images || NewsDisaster Info.WeblogTrackbackTyphoon FrontTwiphoonTyphoon Now!Typhoon ImaginationJMA Disaster Info. XMLResourceGoogle EarthGE AnimationAtom FeedGeoJSON
Detalied Best Track (Time Zone = UTC)
Year Month Day Hour Lat. Long. Pressure (hPa) Wind (kt) Class Image Chart
2018 7 17 12 18.4 127.9 1000 0 2 Image Chart
2018 7 17 18 18.8 128.2 1000 0 2 Image Chart
2018 7 18 00 19.1 128.7 1000 0 2 Image Chart
2018 7 18 06 19.4 129.4 1000 0 2 Image Chart
2018 7 18 12 19.7 130.0 996 35 3 Image Chart
2018 7 18 18 19.8 130.4 996 35 3 Image Chart
2018 7 19 00 20.0 130.8 994 40 3 Image Chart
2018 7 19 06 20.9 131.7 994 40 3 Image Chart
2018 7 19 12 21.6 131.6 990 45 3 Image Chart
2018 7 19 18 22.3 131.2 985 50 4 Image Chart
2018 7 20 00 22.5 130.8 985 50 4 Image Chart
2018 7 20 06 23.1 130.5 985 50 4 Image Chart
2018 7 20 09 23.8 130.3 985 50 4 Image Chart
2018 7 20 12 24.5 129.9 985 50 4 Image Chart
2018 7 20 15 24.9 129.5 985 50 4 Image Chart
2018 7 20 18 25.6 129.0 985 50 4 Image Chart
2018 7 20 21 26.2 128.7 985 50 4 Image Chart
2018 7 20 23 26.6 128.3 985 50 4 Image Chart
2018 7 21 00 26.7 127.9 985 50 4 Image Chart
2018 7 21 03 27.3 127.3 985 50 4 Image Chart
2018 7 21 06 27.8 126.7 985 50 4 Image Chart
2018 7 21 12 28.6 125.9 985 50 4 Image Chart
2018 7 21 18 29.6 124.5 985 50 4 Image Chart
2018 7 22 00 30.7 123.2 985 45 3 Image Chart
2018 7 22 06 31.8 121.9 985 45 3 Image Chart
2018 7 22 12 32.7 120.7 985 40 3 Image Chart
2018 7 22 18 33.4 119.8 990 35 3 Image Chart
2018 7 23 00 34.5 119.2 992 35 3 Image Chart
2018 7 23 06 35.1 118.7 992 35 3 Image Chart
2018 7 23 12 36.5 117.9 996 0 2 Image Chart
2018 7 23 18 37.5 117.3 996 0 2 Image Chart
2018 7 24 00 39.1 117.3 996 0 2 Image Chart
2018 7 24 06 39.9 118.3 996 0 2 Image Chart
2018 7 24 12 41.6 119.9 996 0 2 Image Chart
2018 7 24 18 43.5 122.0 996 0 2 Image Chart
2018 7 25 00 45.1 124.5 996 0 6 Image Chart
2018 7 25 06 46.1 127.6 996 0 6 Image Chart
2018 7 25 12 46.9 131.8 998 0 6 Image Chart
2018 7 25 18 47.3 134.9 1000 0 6 Image Chart
2018 7 26 00 47.4 136.5 1002 0 6 Image Chart
2018 7 26 06 47.5 137.8 1004 0 6 Image Chart
Japan Meteorological Agency Best Track Data | Correction Date : 2018-09-04
< Typhoon 201809 2018 Season Typhoon 201811 >

Help